sensor_id;sensor_type;location;lat;lon;timestamp;P1;durP1;ratioP1;P2;durP2;ratioP2
16272;SDS011;8244;50.044;9.006;2023-08-17T00:00:00;4.70;;;1.80;;
16272;SDS011;8244;50.044;9.006;2023-08-17T00:05:04;4.20;;;2.05;;
16272;SDS011;8244;50.044;9.006;2023-08-17T00:10:08;3.92;;;1.63;;
16272;SDS011;8244;50.044;9.006;2023-08-17T00:15:11;6.03;;;1.90;;
16272;SDS011;8244;50.044;9.006;2023-08-17T00:20:13;5.23;;;2.10;;
16272;SDS011;8244;50.044;9.006;2023-08-17T00:25:18;4.65;;;1.85;;
16272;SDS011;8244;50.044;9.006;2023-08-17T00:30:20;4.40;;;2.05;;
16272;SDS011;8244;50.044;9.006;2023-08-17T00:35:22;3.17;;;2.08;;
16272;SDS011;8244;50.044;9.006;2023-08-17T00:40:25;4.18;;;1.90;;
16272;SDS011;8244;50.044;9.006;2023-08-17T00:45:27;4.90;;;2.20;;
16272;SDS011;8244;50.044;9.006;2023-08-17T00:50:28;5.85;;;1.80;;
16272;SDS011;8244;50.044;9.006;2023-08-17T00:55:35;6.72;;;2.30;;
16272;SDS011;8244;50.044;9.006;2023-08-17T01:00:37;9.43;;;2.30;;
16272;SDS011;8244;50.044;9.006;2023-08-17T01:05:39;4.80;;;2.35;;
16272;SDS011;8244;50.044;9.006;2023-08-17T01:10:44;6.30;;;2.25;;
16272;SDS011;8244;50.044;9.006;2023-08-17T01:15:54;7.50;;;2.55;;
16272;SDS011;8244;50.044;9.006;2023-08-17T01:20:59;4.20;;;1.98;;
16272;SDS011;8244;50.044;9.006;2023-08-17T01:26:06;4.53;;;2.45;;
16272;SDS011;8244;50.044;9.006;2023-08-17T01:31:08;5.68;;;2.58;;
16272;SDS011;8244;50.044;9.006;2023-08-17T01:36:17;5.38;;;2.28;;
16272;SDS011;8244;50.044;9.006;2023-08-17T01:41:23;7.53;;;2.60;;
16272;SDS011;8244;50.044;9.006;2023-08-17T01:46:29;4.70;;;2.67;;
16272;SDS011;8244;50.044;9.006;2023-08-17T01:51:33;6.65;;;2.72;;
16272;SDS011;8244;50.044;9.006;2023-08-17T01:56:36;5.30;;;2.53;;
16272;SDS011;8244;50.044;9.006;2023-08-17T02:01:38;6.88;;;3.00;;
16272;SDS011;8244;50.044;9.006;2023-08-17T02:06:39;6.78;;;3.10;;
16272;SDS011;8244;50.044;9.006;2023-08-17T02:11:43;11.48;;;3.17;;
16272;SDS011;8244;50.044;9.006;2023-08-17T02:16:46;6.57;;;3.03;;
16272;SDS011;8244;50.044;9.006;2023-08-17T02:21:49;5.63;;;3.33;;
16272;SDS011;8244;50.044;9.006;2023-08-17T02:26:52;5.68;;;2.75;;
16272;SDS011;8244;50.044;9.006;2023-08-17T02:31:53;6.13;;;3.33;;
16272;SDS011;8244;50.044;9.006;2023-08-17T02:36:56;11.18;;;4.38;;
16272;SDS011;8244;50.044;9.006;2023-08-17T02:41:59;6.80;;;3.95;;
16272;SDS011;8244;50.044;9.006;2023-08-17T02:47:00;11.38;;;5.13;;
16272;SDS011;8244;50.044;9.006;2023-08-17T02:52:02;7.75;;;5.20;;
16272;SDS011;8244;50.044;9.006;2023-08-17T02:57:06;10.57;;;5.30;;
16272;SDS011;8244;50.044;9.006;2023-08-17T03:02:07;6.68;;;4.35;;
16272;SDS011;8244;50.044;9.006;2023-08-17T03:07:09;10.40;;;4.68;;
16272;SDS011;8244;50.044;9.006;2023-08-17T03:12:12;6.55;;;4.30;;
16272;SDS011;8244;50.044;9.006;2023-08-17T03:17:14;10.52;;;4.80;;
16272;SDS011;8244;50.044;9.006;2023-08-17T03:22:16;8.15;;;5.45;;
16272;SDS011;8244;50.044;9.006;2023-08-17T03:27:19;7.15;;;5.38;;
16272;SDS011;8244;50.044;9.006;2023-08-17T03:32:21;7.32;;;5.00;;
16272;SDS011;8244;50.044;9.006;2023-08-17T03:37:22;9.07;;;5.63;;
16272;SDS011;8244;50.044;9.006;2023-08-17T03:42:25;8.98;;;5.70;;
16272;SDS011;8244;50.044;9.006;2023-08-17T03:47:27;7.65;;;5.28;;
16272;SDS011;8244;50.044;9.006;2023-08-17T03:52:29;7.63;;;5.47;;
16272;SDS011;8244;50.044;9.006;2023-08-17T03:57:33;10.50;;;6.00;;
16272;SDS011;8244;50.044;9.006;2023-08-17T04:02:35;6.80;;;4.95;;
16272;SDS011;8244;50.044;9.006;2023-08-17T04:07:40;9.63;;;4.88;;
16272;SDS011;8244;50.044;9.006;2023-08-17T04:12:43;7.47;;;5.00;;
16272;SDS011;8244;50.044;9.006;2023-08-17T04:17:45;6.97;;;4.68;;
16272;SDS011;8244;50.044;9.006;2023-08-17T04:22:46;6.75;;;4.47;;
16272;SDS011;8244;50.044;9.006;2023-08-17T04:27:49;9.77;;;5.20;;
16272;SDS011;8244;50.044;9.006;2023-08-17T04:32:51;6.68;;;4.40;;
16272;SDS011;8244;50.044;9.006;2023-08-17T04:37:53;7.25;;;4.28;;
16272;SDS011;8244;50.044;9.006;2023-08-17T04:42:56;7.72;;;4.32;;
16272;SDS011;8244;50.044;9.006;2023-08-17T04:47:58;5.88;;;4.22;;
16272;SDS011;8244;50.044;9.006;2023-08-17T04:52:59;9.68;;;4.60;;
16272;SDS011;8244;50.044;9.006;2023-08-17T04:58:02;6.88;;;4.38;;
16272;SDS011;8244;50.044;9.006;2023-08-17T05:03:05;6.38;;;4.43;;
16272;SDS011;8244;50.044;9.006;2023-08-17T05:08:06;8.75;;;4.90;;
16272;SDS011;8244;50.044;9.006;2023-08-17T05:13:09;8.23;;;6.32;;
16272;SDS011;8244;50.044;9.006;2023-08-17T05:18:11;9.02;;;5.82;;
16272;SDS011;8244;50.044;9.006;2023-08-17T05:23:13;8.60;;;5.57;;
16272;SDS011;8244;50.044;9.006;2023-08-17T05:28:16;6.88;;;5.20;;
16272;SDS011;8244;50.044;9.006;2023-08-17T05:33:18;10.40;;;6.57;;
16272;SDS011;8244;50.044;9.006;2023-08-17T05:38:19;9.82;;;6.82;;
16272;SDS011;8244;50.044;9.006;2023-08-17T05:43:22;8.23;;;6.25;;
16272;SDS011;8244;50.044;9.006;2023-08-17T05:48:24;8.07;;;6.10;;
16272;SDS011;8244;50.044;9.006;2023-08-17T05:53:26;6.55;;;4.97;;
16272;SDS011;8244;50.044;9.006;2023-08-17T05:58:29;10.68;;;4.97;;
16272;SDS011;8244;50.044;9.006;2023-08-17T06:03:31;7.78;;;4.65;;
16272;SDS011;8244;50.044;9.006;2023-08-17T06:08:33;7.75;;;5.25;;
16272;SDS011;8244;50.044;9.006;2023-08-17T06:13:36;7.57;;;4.20;;
16272;SDS011;8244;50.044;9.006;2023-08-17T06:18:38;6.60;;;4.40;;
16272;SDS011;8244;50.044;9.006;2023-08-17T06:23:40;9.77;;;4.63;;
16272;SDS011;8244;50.044;9.006;2023-08-17T06:28:43;6.97;;;4.90;;
16272;SDS011;8244;50.044;9.006;2023-08-17T06:33:45;9.13;;;5.60;;
16272;SDS011;8244;50.044;9.006;2023-08-17T06:38:47;9.95;;;5.47;;
16272;SDS011;8244;50.044;9.006;2023-08-17T06:43:50;9.05;;;5.18;;
16272;SDS011;8244;50.044;9.006;2023-08-17T06:48:51;8.32;;;5.05;;
16272;SDS011;8244;50.044;9.006;2023-08-17T06:53:53;6.82;;;5.32;;
16272;SDS011;8244;50.044;9.006;2023-08-17T06:58:56;6.00;;;4.25;;
16272;SDS011;8244;50.044;9.006;2023-08-17T07:03:58;8.50;;;4.88;;
16272;SDS011;8244;50.044;9.006;2023-08-17T07:09:00;8.48;;;5.05;;
16272;SDS011;8244;50.044;9.006;2023-08-17T07:14:03;6.53;;;4.63;;
16272;SDS011;8244;50.044;9.006;2023-08-17T07:19:06;4.32;;;3.70;;
16272;SDS011;8244;50.044;9.006;2023-08-17T07:24:11;4.30;;;3.53;;
16272;SDS011;8244;50.044;9.006;2023-08-17T07:29:15;6.35;;;3.50;;
16272;SDS011;8244;50.044;9.006;2023-08-17T07:34:17;6.57;;;4.13;;
16272;SDS011;8244;50.044;9.006;2023-08-17T07:39:18;8.02;;;4.57;;
16272;SDS011;8244;50.044;9.006;2023-08-17T07:44:21;6.20;;;3.87;;
16272;SDS011;8244;50.044;9.006;2023-08-17T07:49:24;5.10;;;3.55;;
16272;SDS011;8244;50.044;9.006;2023-08-17T07:54:25;5.40;;;4.35;;
16272;SDS011;8244;50.044;9.006;2023-08-17T07:59:28;4.68;;;3.65;;
16272;SDS011;8244;50.044;9.006;2023-08-17T08:04:30;5.25;;;3.92;;
16272;SDS011;8244;50.044;9.006;2023-08-17T08:09:32;4.88;;;4.00;;
16272;SDS011;8244;50.044;9.006;2023-08-17T08:14:35;4.72;;;3.40;;
16272;SDS011;8244;50.044;9.006;2023-08-17T08:19:37;5.00;;;3.28;;
16272;SDS011;8244;50.044;9.006;2023-08-17T08:24:39;4.70;;;3.15;;
16272;SDS011;8244;50.044;9.006;2023-08-17T08:29:42;4.05;;;3.53;;
16272;SDS011;8244;50.044;9.006;2023-08-17T08:34:44;4.18;;;3.10;;
16272;SDS011;8244;50.044;9.006;2023-08-17T08:39:49;3.88;;;3.40;;
16272;SDS011;8244;50.044;9.006;2023-08-17T08:44:53;5.70;;;3.50;;
16272;SDS011;8244;50.044;9.006;2023-08-17T08:49:57;3.58;;;2.90;;
16272;SDS011;8244;50.044;9.006;2023-08-17T08:55:08;4.35;;;2.80;;
16272;SDS011;8244;50.044;9.006;2023-08-17T09:00:14;3.65;;;3.15;;
16272;SDS011;8244;50.044;9.006;2023-08-17T09:05:17;4.45;;;2.90;;
16272;SDS011;8244;50.044;9.006;2023-08-17T09:10:20;2.38;;;2.17;;
16272;SDS011;8244;50.044;9.006;2023-08-17T09:15:23;2.55;;;2.35;;
16272;SDS011;8244;50.044;9.006;2023-08-17T09:20:35;3.60;;;2.55;;
16272;SDS011;8244;50.044;9.006;2023-08-17T09:25:39;2.70;;;2.20;;
16272;SDS011;8244;50.044;9.006;2023-08-17T09:30:56;2.92;;;2.40;;
16272;SDS011;8244;50.044;9.006;2023-08-17T09:36:00;3.63;;;2.38;;
16272;SDS011;8244;50.044;9.006;2023-08-17T09:41:02;4.88;;;2.63;;
16272;SDS011;8244;50.044;9.006;2023-08-17T09:46:07;4.32;;;2.50;;
16272;SDS011;8244;50.044;9.006;2023-08-17T09:51:10;4.32;;;2.80;;
16272;SDS011;8244;50.044;9.006;2023-08-17T09:56:11;4.15;;;2.30;;
16272;SDS011;8244;50.044;9.006;2023-08-17T10:01:15;3.78;;;2.22;;
16272;SDS011;8244;50.044;9.006;2023-08-17T10:06:19;4.90;;;2.47;;
16272;SDS011;8244;50.044;9.006;2023-08-17T10:11:25;4.47;;;1.98;;
16272;SDS011;8244;50.044;9.006;2023-08-17T10:16:35;2.75;;;2.25;;
16272;SDS011;8244;50.044;9.006;2023-08-17T10:21:43;4.05;;;2.28;;
16272;SDS011;8244;50.044;9.006;2023-08-17T10:26:48;2.90;;;2.33;;
16272;SDS011;8244;50.044;9.006;2023-08-17T10:31:52;4.45;;;2.00;;
16272;SDS011;8244;50.044;9.006;2023-08-17T10:36:55;2.40;;;1.48;;
16272;SDS011;8244;50.044;9.006;2023-08-17T10:41:58;3.75;;;1.75;;
16272;SDS011;8244;50.044;9.006;2023-08-17T10:47:05;4.10;;;1.77;;
16272;SDS011;8244;50.044;9.006;2023-08-17T10:52:26;2.47;;;1.77;;
16272;SDS011;8244;50.044;9.006;2023-08-17T10:57:31;2.17;;;1.70;;
16272;SDS011;8244;50.044;9.006;2023-08-17T11:02:35;2.78;;;1.90;;
16272;SDS011;8244;50.044;9.006;2023-08-17T11:07:39;5.35;;;2.20;;
16272;SDS011;8244;50.044;9.006;2023-08-17T11:12:41;2.85;;;1.90;;
16272;SDS011;8244;50.044;9.006;2023-08-17T11:17:44;2.45;;;1.70;;
16272;SDS011;8244;50.044;9.006;2023-08-17T11:22:46;2.75;;;1.90;;
16272;SDS011;8244;50.044;9.006;2023-08-17T11:27:48;2.08;;;1.90;;
16272;SDS011;8244;50.044;9.006;2023-08-17T11:32:52;3.20;;;1.90;;
16272;SDS011;8244;50.044;9.006;2023-08-17T11:37:54;2.47;;;2.03;;
16272;SDS011;8244;50.044;9.006;2023-08-17T11:42:56;3.85;;;2.35;;
16272;SDS011;8244;50.044;9.006;2023-08-17T11:48:00;7.18;;;2.30;;
16272;SDS011;8244;50.044;9.006;2023-08-17T11:53:04;3.13;;;2.20;;
16272;SDS011;8244;50.044;9.006;2023-08-17T11:58:05;3.13;;;2.03;;
16272;SDS011;8244;50.044;9.006;2023-08-17T12:03:12;2.17;;;1.90;;
16272;SDS011;8244;50.044;9.006;2023-08-17T12:08:15;3.42;;;2.10;;
16272;SDS011;8244;50.044;9.006;2023-08-17T12:13:19;4.40;;;2.40;;
16272;SDS011;8244;50.044;9.006;2023-08-17T12:18:23;3.00;;;1.98;;
16272;SDS011;8244;50.044;9.006;2023-08-17T12:23:26;3.13;;;2.13;;
16272;SDS011;8244;50.044;9.006;2023-08-17T12:28:28;2.95;;;2.45;;
16272;SDS011;8244;50.044;9.006;2023-08-17T12:33:31;2.92;;;2.25;;
16272;SDS011;8244;50.044;9.006;2023-08-17T12:38:33;2.38;;;1.90;;
16272;SDS011;8244;50.044;9.006;2023-08-17T12:43:36;4.03;;;2.30;;
16272;SDS011;8244;50.044;9.006;2023-08-17T12:48:39;2.90;;;2.13;;
16272;SDS011;8244;50.044;9.006;2023-08-17T12:53:41;3.53;;;2.10;;
16272;SDS011;8244;50.044;9.006;2023-08-17T12:58:43;2.92;;;2.05;;
16272;SDS011;8244;50.044;9.006;2023-08-17T13:03:47;2.20;;;1.65;;
16272;SDS011;8244;50.044;9.006;2023-08-17T13:08:49;2.92;;;1.98;;
16272;SDS011;8244;50.044;9.006;2023-08-17T13:13:50;2.63;;;1.80;;
16272;SDS011;8244;50.044;9.006;2023-08-17T13:18:53;2.30;;;1.85;;
16272;SDS011;8244;50.044;9.006;2023-08-17T13:23:55;4.75;;;2.20;;
16272;SDS011;8244;50.044;9.006;2023-08-17T13:28:57;2.60;;;1.90;;
16272;SDS011;8244;50.044;9.006;2023-08-17T13:34:00;4.03;;;1.90;;
16272;SDS011;8244;50.044;9.006;2023-08-17T13:39:01;2.85;;;2.03;;
16272;SDS011;8244;50.044;9.006;2023-08-17T13:44:04;4.05;;;2.10;;
16272;SDS011;8244;50.044;9.006;2023-08-17T13:49:07;4.00;;;2.00;;
16272;SDS011;8244;50.044;9.006;2023-08-17T13:54:09;2.17;;;1.90;;
16272;SDS011;8244;50.044;9.006;2023-08-17T13:59:11;2.17;;;1.98;;
16272;SDS011;8244;50.044;9.006;2023-08-17T14:04:14;3.08;;;1.88;;
16272;SDS011;8244;50.044;9.006;2023-08-17T14:09:17;4.55;;;2.08;;
16272;SDS011;8244;50.044;9.006;2023-08-17T14:14:19;2.00;;;1.80;;
16272;SDS011;8244;50.044;9.006;2023-08-17T14:19:22;2.92;;;2.20;;
16272;SDS011;8244;50.044;9.006;2023-08-17T14:24:25;2.80;;;1.90;;
16272;SDS011;8244;50.044;9.006;2023-08-17T14:29:26;3.28;;;2.22;;
16272;SDS011;8244;50.044;9.006;2023-08-17T14:34:29;2.40;;;1.88;;
16272;SDS011;8244;50.044;9.006;2023-08-17T14:39:31;2.72;;;1.90;;
16272;SDS011;8244;50.044;9.006;2023-08-17T14:44:33;4.15;;;2.10;;
16272;SDS011;8244;50.044;9.006;2023-08-17T14:49:36;4.15;;;1.80;;
16272;SDS011;8244;50.044;9.006;2023-08-17T14:54:38;2.55;;;1.80;;
16272;SDS011;8244;50.044;9.006;2023-08-17T14:59:39;3.35;;;1.90;;
16272;SDS011;8244;50.044;9.006;2023-08-17T15:04:42;2.03;;;1.70;;
16272;SDS011;8244;50.044;9.006;2023-08-17T15:09:44;2.13;;;1.90;;
16272;SDS011;8244;50.044;9.006;2023-08-17T15:14:46;2.50;;;1.92;;
16272;SDS011;8244;50.044;9.006;2023-08-17T15:20:08;1.75;;;1.48;;
16272;SDS011;8244;50.044;9.006;2023-08-17T15:25:09;3.10;;;1.67;;
16272;SDS011;8244;50.044;9.006;2023-08-17T15:30:11;1.73;;;1.63;;
16272;SDS011;8244;50.044;9.006;2023-08-17T15:35:14;1.92;;;1.67;;
16272;SDS011;8244;50.044;9.006;2023-08-17T15:40:16;2.30;;;1.90;;
16272;SDS011;8244;50.044;9.006;2023-08-17T15:45:18;5.10;;;2.03;;
16272;SDS011;8244;50.044;9.006;2023-08-17T15:50:22;3.55;;;1.80;;
16272;SDS011;8244;50.044;9.006;2023-08-17T15:55:26;3.28;;;1.95;;
16272;SDS011;8244;50.044;9.006;2023-08-17T16:00:28;2.00;;;1.80;;
16272;SDS011;8244;50.044;9.006;2023-08-17T16:05:31;2.28;;;1.90;;
16272;SDS011;8244;50.044;9.006;2023-08-17T16:10:32;2.65;;;1.90;;
16272;SDS011;8244;50.044;9.006;2023-08-17T16:15:34;2.42;;;1.67;;
16272;SDS011;8244;50.044;9.006;2023-08-17T16:20:37;2.40;;;1.88;;
16272;SDS011;8244;50.044;9.006;2023-08-17T16:25:39;2.05;;;1.75;;
16272;SDS011;8244;50.044;9.006;2023-08-17T16:30:41;2.25;;;1.83;;
16272;SDS011;8244;50.044;9.006;2023-08-17T16:35:44;2.55;;;1.80;;
16272;SDS011;8244;50.044;9.006;2023-08-17T16:40:45;3.75;;;1.70;;
16272;SDS011;8244;50.044;9.006;2023-08-17T16:45:47;2.88;;;1.90;;
16272;SDS011;8244;50.044;9.006;2023-08-17T16:50:50;3.10;;;1.90;;
16272;SDS011;8244;50.044;9.006;2023-08-17T16:55:52;4.47;;;1.80;;
16272;SDS011;8244;50.044;9.006;2023-08-17T17:00:54;2.90;;;1.90;;
16272;SDS011;8244;50.044;9.006;2023-08-17T17:05:58;2.03;;;1.67;;
16272;SDS011;8244;50.044;9.006;2023-08-17T17:10:59;3.17;;;1.50;;
16272;SDS011;8244;50.044;9.006;2023-08-17T17:16:01;1.60;;;1.50;;
16272;SDS011;8244;50.044;9.006;2023-08-17T17:21:07;3.28;;;2.00;;
16272;SDS011;8244;50.044;9.006;2023-08-17T17:26:12;4.07;;;2.15;;
16272;SDS011;8244;50.044;9.006;2023-08-17T17:31:13;3.17;;;1.95;;
16272;SDS011;8244;50.044;9.006;2023-08-17T17:36:17;5.68;;;1.80;;
16272;SDS011;8244;50.044;9.006;2023-08-17T17:41:18;2.67;;;1.70;;
16272;SDS011;8244;50.044;9.006;2023-08-17T17:46:20;2.85;;;1.70;;
16272;SDS011;8244;50.044;9.006;2023-08-17T17:51:23;3.17;;;1.85;;
16272;SDS011;8244;50.044;9.006;2023-08-17T17:56:37;3.75;;;1.80;;
16272;SDS011;8244;50.044;9.006;2023-08-17T18:01:40;1.88;;;1.67;;
16272;SDS011;8244;50.044;9.006;2023-08-17T18:06:44;4.63;;;1.80;;
16272;SDS011;8244;50.044;9.006;2023-08-17T18:11:45;2.45;;;1.60;;
16272;SDS011;8244;50.044;9.006;2023-08-17T18:16:53;1.95;;;1.70;;
16272;SDS011;8244;50.044;9.006;2023-08-17T18:21:56;2.58;;;1.80;;
16272;SDS011;8244;50.044;9.006;2023-08-17T18:26:58;2.75;;;1.83;;
16272;SDS011;8244;50.044;9.006;2023-08-17T18:35:50;2.55;;;1.77;;
16272;SDS011;8244;50.044;9.006;2023-08-17T18:40:53;2.72;;;1.80;;
16272;SDS011;8244;50.044;9.006;2023-08-17T18:45:55;2.65;;;2.13;;
16272;SDS011;8244;50.044;9.006;2023-08-17T18:50:58;1.80;;;1.70;;
16272;SDS011;8244;50.044;9.006;2023-08-17T18:56:00;2.20;;;2.00;;
16272;SDS011;8244;50.044;9.006;2023-08-17T19:01:02;1.70;;;1.60;;
16272;SDS011;8244;50.044;9.006;2023-08-17T19:06:05;1.95;;;1.83;;
16272;SDS011;8244;50.044;9.006;2023-08-17T19:11:07;3.80;;;2.00;;
16272;SDS011;8244;50.044;9.006;2023-08-17T19:16:09;2.10;;;1.88;;
16272;SDS011;8244;50.044;9.006;2023-08-17T19:21:12;5.82;;;2.13;;
16272;SDS011;8244;50.044;9.006;2023-08-17T19:26:15;3.47;;;2.15;;
16272;SDS011;8244;50.044;9.006;2023-08-17T19:31:16;3.20;;;2.20;;
16272;SDS011;8244;50.044;9.006;2023-08-17T19:36:20;3.85;;;2.20;;
16272;SDS011;8244;50.044;9.006;2023-08-17T19:41:21;4.32;;;2.10;;
16272;SDS011;8244;50.044;9.006;2023-08-17T19:46:23;3.20;;;2.25;;
16272;SDS011;8244;50.044;9.006;2023-08-17T19:51:26;4.05;;;2.08;;
16272;SDS011;8244;50.044;9.006;2023-08-17T19:56:28;2.53;;;2.33;;
16272;SDS011;8244;50.044;9.006;2023-08-17T20:01:29;7.10;;;2.30;;
16272;SDS011;8244;50.044;9.006;2023-08-17T20:06:35;7.93;;;2.60;;
16272;SDS011;8244;50.044;9.006;2023-08-17T20:11:37;4.63;;;2.80;;
16272;SDS011;8244;50.044;9.006;2023-08-17T20:16:38;5.35;;;2.60;;
16272;SDS011;8244;50.044;9.006;2023-08-17T20:21:41;4.50;;;2.50;;
16272;SDS011;8244;50.044;9.006;2023-08-17T20:26:43;3.50;;;2.22;;
16272;SDS011;8244;50.044;9.006;2023-08-17T20:31:45;3.38;;;2.60;;
16272;SDS011;8244;50.044;9.006;2023-08-17T20:36:49;6.10;;;2.90;;
16272;SDS011;8244;50.044;9.006;2023-08-17T20:41:52;4.03;;;2.60;;
16272;SDS011;8244;50.044;9.006;2023-08-17T20:46:54;6.63;;;2.67;;
16272;SDS011;8244;50.044;9.006;2023-08-17T20:51:57;5.72;;;2.97;;
16272;SDS011;8244;50.044;9.006;2023-08-17T20:56:59;3.90;;;2.50;;
16272;SDS011;8244;50.044;9.006;2023-08-17T21:02:03;9.80;;;3.20;;
16272;SDS011;8244;50.044;9.006;2023-08-17T21:07:08;6.22;;;2.90;;
16272;SDS011;8244;50.044;9.006;2023-08-17T21:12:09;4.60;;;2.80;;
16272;SDS011;8244;50.044;9.006;2023-08-17T21:17:11;8.68;;;3.45;;
16272;SDS011;8244;50.044;9.006;2023-08-17T21:22:14;4.55;;;3.10;;
16272;SDS011;8244;50.044;9.006;2023-08-17T21:27:16;6.68;;;2.65;;
16272;SDS011;8244;50.044;9.006;2023-08-17T21:32:17;6.43;;;3.05;;
16272;SDS011;8244;50.044;9.006;2023-08-17T21:37:25;4.78;;;3.10;;
16272;SDS011;8244;50.044;9.006;2023-08-17T21:42:28;6.05;;;3.15;;
16272;SDS011;8244;50.044;9.006;2023-08-17T21:47:29;5.70;;;3.20;;
16272;SDS011;8244;50.044;9.006;2023-08-17T21:52:32;7.55;;;3.30;;
16272;SDS011;8244;50.044;9.006;2023-08-17T21:57:35;8.70;;;3.45;;
16272;SDS011;8244;50.044;9.006;2023-08-17T22:02:37;5.45;;;3.00;;
16272;SDS011;8244;50.044;9.006;2023-08-17T22:07:40;5.40;;;3.53;;
16272;SDS011;8244;50.044;9.006;2023-08-17T22:12:42;5.85;;;3.30;;
16272;SDS011;8244;50.044;9.006;2023-08-17T22:17:43;4.57;;;3.60;;
16272;SDS011;8244;50.044;9.006;2023-08-17T22:22:47;6.80;;;3.45;;
16272;SDS011;8244;50.044;9.006;2023-08-17T22:27:48;4.55;;;3.30;;
16272;SDS011;8244;50.044;9.006;2023-08-17T22:32:50;7.15;;;3.47;;
16272;SDS011;8244;50.044;9.006;2023-08-17T22:37:53;7.13;;;3.28;;
16272;SDS011;8244;50.044;9.006;2023-08-17T22:42:55;5.90;;;3.50;;
16272;SDS011;8244;50.044;9.006;2023-08-17T22:47:57;5.32;;;3.17;;
16272;SDS011;8244;50.044;9.006;2023-08-17T22:53:00;4.55;;;3.00;;
16272;SDS011;8244;50.044;9.006;2023-08-17T22:58:01;8.20;;;3.40;;
16272;SDS011;8244;50.044;9.006;2023-08-17T23:03:03;4.53;;;3.35;;
16272;SDS011;8244;50.044;9.006;2023-08-17T23:08:07;6.78;;;3.55;;
16272;SDS011;8244;50.044;9.006;2023-08-17T23:13:08;6.03;;;3.10;;
16272;SDS011;8244;50.044;9.006;2023-08-17T23:18:10;5.25;;;3.70;;
16272;SDS011;8244;50.044;9.006;2023-08-17T23:23:13;7.30;;;3.72;;
16272;SDS011;8244;50.044;9.006;2023-08-17T23:28:15;5.65;;;4.00;;
16272;SDS011;8244;50.044;9.006;2023-08-17T23:33:17;7.55;;;3.65;;
16272;SDS011;8244;50.044;9.006;2023-08-17T23:38:20;5.45;;;3.60;;
16272;SDS011;8244;50.044;9.006;2023-08-17T23:43:22;6.63;;;4.00;;
16272;SDS011;8244;50.044;9.006;2023-08-17T23:48:24;7.10;;;4.07;;
16272;SDS011;8244;50.044;9.006;2023-08-17T23:53:27;6.72;;;4.13;;
16272;SDS011;8244;50.044;9.006;2023-08-17T23:58:29;8.27;;;4.30;;
